Ardenvoir, Washington
Current Conditions -  °F | °C
As of 6:22 PM on Wednesday 17 Dec 2014 (Local Time) from KEAT Reporting Station
Haze Haze  
Wind Chill:   Ceiling: 2100
Heat Index:   Visibility: 2.5mi
Dew Point:   Wind: 6mph
Humidity: 93%   Direction: 290°WNW
Pressure: 29.96"   Gusts: NA
Location:  47.74°N, 120.37°W
Report Text: KEAT 180222Z AUTO 29005KT 2 1/2SM BR FEW001 OVC021 02/01 A2996 RMK AO2 RAE00 P0000 T00220011
Loading
Personal Weather Stations






























Interactive Weather Map New forecast layout! Learn more

10-Day Weather Forecast

Advertisements
Track Severe Weather on mobile